Time;durP1;ratioP1;P1;durP2;ratioP2;P2;SDS_P1;SDS_P2;PMS_P1;PMS_P2;Temp;Humidity;BMP_temperature;BMP_pressure;BME280_temperature;BME280_humidity;BME280_pressure;Samples;Min_cycle;Max_cycle;Signal;HPM_P1;HPM_P2
2021/09/12 00:01:52;;;;;;;25.12;22.35;;;;;;;17.64;78.04;100647.69;1677902;83;26645;-79
2021/09/12 00:04:19;;;;;;;30.02;22.77;;;;;;;17.60;78.00;100645.66;1732686;82;25785;-78
2021/09/12 00:06:46;;;;;;;26.27;21.42;;;;;;;17.57;77.95;100654.27;1684860;82;28117;-79
2021/09/12 00:09:13;;;;;;;30.15;24.98;;;;;;;17.54;77.88;100652.01;1683361;82;25919;-78
2021/09/12 00:11:40;;;;;;;30.00;22.37;;;;;;;17.47;78.02;100648.01;1732381;82;25905;-78
2021/09/12 00:14:07;;;;;;;26.05;21.37;;;;;;;17.43;78.06;100648.17;1726784;81;25941;-79
2021/09/12 00:16:34;;;;;;;28.67;22.45;;;;;;;17.36;77.89;100642.05;1704002;82;25826;-78
2021/09/12 00:19:01;;;;;;;26.42;22.25;;;;;;;17.34;78.13;100644.69;1723157;82;27552;-79
2021/09/12 00:21:28;;;;;;;28.65;22.02;;;;;;;17.34;78.37;100645.48;1731712;82;26529;-78
2021/09/12 00:23:55;;;;;;;30.50;23.92;;;;;;;17.37;78.54;100653.68;1731407;82;25825;-78
2021/09/12 00:26:22;;;;;;;28.15;22.58;;;;;;;17.35;78.64;100649.86;1677067;82;25881;-78
2021/09/12 00:28:49;;;;;;;29.75;23.42;;;;;;;17.36;78.77;100647.98;1656079;82;25850;-78
2021/09/12 00:31:16;;;;;;;28.73;22.42;;;;;;;17.34;78.64;100643.33;1731345;82;27672;-79
2021/09/12 00:33:43;;;;;;;28.17;22.93;;;;;;;17.32;78.82;100641.38;1728444;82;25842;-78
2021/09/12 00:36:10;;;;;;;31.23;23.98;;;;;;;17.31;78.87;100635.13;1696359;81;25766;-78
2021/09/12 00:38:37;;;;;;;31.60;23.15;;;;;;;17.31;79.16;100633.78;1723091;82;25913;-78
2021/09/12 00:41:04;;;;;;;29.90;23.45;;;;;;;17.33;79.21;100636.25;1704008;82;25787;-78
2021/09/12 00:43:31;;;;;;;26.87;23.00;;;;;;;17.32;79.37;100634.06;1731773;82;27615;-79
2021/09/12 00:46:05;;;;;;;26.68;22.02;;;;;;;17.34;79.45;100633.85;1699371;82;26137;-79
2021/09/12 00:48:27;;;;;;;27.85;23.00;;;;;;;17.34;79.45;100633.30;1687490;82;26226;-78
2021/09/12 00:50:54;;;;;;;27.32;22.67;;;;;;;17.32;79.32;100632.70;1731947;82;25913;-78
2021/09/12 00:53:23;;;;;;;28.55;22.30;;;;;;;17.31;79.21;100631.59;1723182;82;25883;-78
2021/09/12 00:55:53;;;;;;;28.50;22.07;;;;;;;17.29;79.23;100622.88;1652407;83;28267;-79
2021/09/12 00:58:21;;;;;;;28.07;22.13;;;;;;;17.26;79.22;100624.16;1706709;82;25946;-78
2021/09/12 01:00:48;;;;;;;27.93;22.65;;;;;;;17.23;79.29;100624.63;1731509;82;25842;-78
2021/09/12 01:03:15;;;;;;;28.15;23.40;;;;;;;17.18;79.34;100620.94;1732033;81;25830;-78
2021/09/12 01:05:43;;;;;;;29.90;24.23;;;;;;;17.12;79.44;100625.40;1656696;82;25971;-78
2021/09/12 01:08:10;;;;;;;27.02;22.93;;;;;;;17.09;79.58;100619.59;1712244;82;27511;-79
2021/09/12 01:10:37;;;;;;;30.05;22.42;;;;;;;17.05;79.57;100622.47;1732623;82;25806;-78
2021/09/12 01:13:05;;;;;;;30.90;23.10;;;;;;;17.03;79.62;100623.22;1732822;81;25308;-79
2021/09/12 01:15:32;;;;;;;26.80;22.13;;;;;;;17.00;79.69;100627.75;1687891;82;25858;-78
2021/09/12 01:18:00;;;;;;;27.67;21.82;;;;;;;16.95;79.69;100627.08;1712802;82;25826;-78
2021/09/12 01:20:27;;;;;;;27.37;22.20;;;;;;;16.93;79.78;100630.02;1732432;82;28268;-79
2021/09/12 01:22:54;;;;;;;25.30;22.07;;;;;;;16.94;80.00;100629.47;1732027;82;25778;-78
2021/09/12 01:25:21;;;;;;;30.70;21.77;;;;;;;16.94;80.11;100634.37;1691204;82;25995;-78
2021/09/12 01:27:48;;;;;;;27.85;21.87;;;;;;;16.94;80.12;100630.31;1656763;82;25845;-78
2021/09/12 01:30:15;;;;;;;26.95;21.82;;;;;;;16.95;80.15;100629.78;1728518;82;25873;-78
2021/09/12 01:32:43;;;;;;;27.60;22.15;;;;;;;16.97;80.31;100624.97;1732368;82;28153;-79
2021/09/12 01:35:10;;;;;;;28.38;22.90;;;;;;;16.98;80.38;100631.50;1692670;82;26538;-78
2021/09/12 01:37:37;;;;;;;29.15;21.77;;;;;;;16.99;80.58;100629.63;1698817;81;25856;-79
2021/09/12 01:40:06;;;;;;;27.37;21.82;;;;;;;17.01;80.68;100628.04;1726637;80;26440;-78
2021/09/12 01:42:33;;;;;;;26.42;21.80;;;;;;;17.00;80.77;100633.97;1726171;82;26498;-78
2021/09/12 01:45:00;;;;;;;26.90;21.97;;;;;;;17.01;80.83;100623.46;1680506;82;27625;-78
2021/09/12 01:47:27;;;;;;;25.70;20.95;;;;;;;17.02;80.94;100627.00;1674222;83;25854;-78
2021/09/12 01:49:54;;;;;;;28.00;21.55;;;;;;;17.02;80.94;100624.30;1732497;82;26595;-79
2021/09/12 01:52:21;;;;;;;30.65;21.65;;;;;;;17.02;80.97;100627.00;1723673;82;25955;-78
2021/09/12 01:54:48;;;;;;;27.13;20.95;;;;;;;17.00;80.99;100620.98;1632459;85;25933;-79
2021/09/12 01:57:15;;;;;;;23.57;19.92;;;;;;;17.01;81.08;100629.39;1698936;83;27559;-79
2021/09/12 01:59:42;;;;;;;24.50;20.00;;;;;;;17.00;80.90;100625.05;1699436;84;26514;-78
2021/09/12 02:02:09;;;;;;;25.05;19.95;;;;;;;16.94;80.57;100620.00;1674411;84;25725;-79
2021/09/12 02:04:36;;;;;;;24.18;19.37;;;;;;;16.90;80.52;100623.70;1662930;84;25831;-78
2021/09/12 02:07:03;;;;;;;26.20;19.82;;;;;;;16.86;80.20;100621.16;1665936;84;25795;-78
2021/09/12 02:09:30;;;;;;;24.63;18.48;;;;;;;16.81;80.18;100619.64;1699272;84;28313;-79
2021/09/12 02:11:57;;;;;;;23.98;20.10;;;;;;;16.79;80.41;100609.58;1699318;84;26540;-78
2021/09/12 02:14:24;;;;;;;24.85;20.77;;;;;;;16.80;80.81;100610.41;1651708;84;25567;-78
2021/09/12 02:16:51;;;;;;;24.77;20.85;;;;;;;16.81;81.04;100610.17;1674541;84;25961;-78
2021/09/12 02:19:18;;;;;;;23.92;19.95;;;;;;;16.81;81.12;100615.59;1649771;84;26667;-79
2021/09/12 02:21:45;;;;;;;24.30;18.48;;;;;;;16.80;80.98;100622.06;1695795;84;28318;-79
2021/09/12 02:24:12;;;;;;;24.52;20.12;;;;;;;16.79;80.83;100616.34;1640420;84;26669;-78
2021/09/12 02:26:40;;;;;;;26.70;20.55;;;;;;;16.76;80.61;100622.22;1630080;84;26510;-78
2021/09/12 02:29:07;;;;;;;25.88;19.95;;;;;;;16.76;80.63;100621.39;1699579;83;26244;-79
2021/09/12 02:31:34;;;;;;;27.52;20.88;;;;;;;16.74;80.80;100612.67;1699339;82;25831;-79
2021/09/12 02:34:01;;;;;;;23.92;20.30;;;;;;;16.75;80.84;100610.25;1674829;83;28515;-78
2021/09/12 02:36:28;;;;;;;25.08;20.80;;;;;;;16.73;80.90;100621.31;1629442;84;26161;-79
2021/09/12 02:38:55;;;;;;;29.18;22.35;;;;;;;16.72;81.11;100619.64;1698807;82;25864;-78
2021/09/12 02:41:22;;;;;;;26.42;21.23;;;;;;;16.71;81.03;100622.58;1699441;84;25813;-78
2021/09/12 02:43:49;;;;;;;27.17;21.20;;;;;;;16.68;81.00;100625.76;1640507;82;26262;-78
2021/09/12 02:46:16;;;;;;;27.27;19.95;;;;;;;16.62;80.83;100619.35;1665863;84;27535;-79
2021/09/12 02:48:43;;;;;;;28.00;21.17;;;;;;;16.60;80.80;100617.92;1673306;84;25793;-79
2021/09/12 02:51:10;;;;;;;27.35;20.88;;;;;;;16.59;80.96;100622.53;1674971;84;26009;-78
2021/09/12 02:53:37;;;;;;;24.15;19.57;;;;;;;16.58;81.18;100618.16;1652229;84;26453;-78
2021/09/12 02:56:04;;;;;;;24.98;20.10;;;;;;;16.57;81.07;100615.69;1643816;83;25950;-79
2021/09/12 02:58:31;;;;;;;26.70;20.35;;;;;;;16.52;81.14;100612.30;1731477;82;27637;-79
2021/09/12 03:00:58;;;;;;;25.20;20.77;;;;;;;16.52;81.48;100618.22;1703517;82;26622;-78
2021/09/12 03:03:25;;;;;;;28.62;21.30;;;;;;;16.49;81.34;100616.77;1657441;82;25867;-79
2021/09/12 03:05:53;;;;;;;23.87;20.80;;;;;;;16.48;81.39;100627.30;1657690;82;25877;-78
2021/09/12 03:08:20;;;;;;;23.70;20.52;;;;;;;16.46;81.51;100615.04;1727887;81;25825;-78
2021/09/12 03:10:47;;;;;;;27.75;20.48;;;;;;;16.45;81.45;100617.43;1731466;82;27628;-78
2021/09/12 03:13:14;;;;;;;24.98;18.42;;;;;;;16.41;81.27;100615.70;1657381;82;25907;-78
2021/09/12 03:15:41;;;;;;;24.92;20.82;;;;;;;16.38;81.21;100614.80;1657986;82;25533;-78
2021/09/12 03:18:08;;;;;;;23.32;19.50;;;;;;;16.37;81.30;100616.37;1723704;82;25918;-78
2021/09/12 03:20:36;;;;;;;23.22;19.15;;;;;;;16.36;81.46;100610.69;1705319;82;26011;-78
2021/09/12 03:23:03;;;;;;;29.55;21.85;;;;;;;16.34;81.43;100617.65;1683850;82;27468;-79
2021/09/12 03:25:32;;;;;;;22.98;19.48;;;;;;;16.34;81.69;100618.20;1679976;82;25995;-78
2021/09/12 03:27:59;;;;;;;25.60;19.98;;;;;;;16.31;81.75;100610.00;1731158;82;25760;-79
2021/09/12 03:30:26;;;;;;;28.65;21.55;;;;;;;16.30;81.83;100618.31;1727061;82;25766;-78
2021/09/12 03:32:53;;;;;;;25.32;20.27;;;;;;;16.29;82.03;100621.56;1669065;82;25848;-78
2021/09/12 03:35:20;;;;;;;25.00;20.75;;;;;;;16.29;81.91;100620.73;1651457;83;27565;-78
2021/09/12 03:37:47;;;;;;;23.90;20.50;;;;;;;16.27;81.85;100630.42;1728184;82;25780;-80
2021/09/12 03:40:14;;;;;;;26.57;21.25;;;;;;;16.27;82.06;100633.13;1731671;82;25841;-79
2021/09/12 03:42:41;;;;;;;24.95;20.55;;;;;;;16.25;82.10;100632.52;1704192;82;25924;-78
2021/09/12 03:45:09;;;;;;;23.85;20.32;;;;;;;16.23;82.17;100631.89;1687662;82;26655;-78
2021/09/12 03:47:36;;;;;;;26.10;21.45;;;;;;;16.23;82.22;100632.44;1698056;83;27518;-78
2021/09/12 03:50:05;;;;;;;22.50;19.70;;;;;;;16.20;82.24;100639.95;1703592;82;25883;-78
2021/09/12 03:52:32;;;;;;;26.20;21.65;;;;;;;16.19;82.30;100638.80;1704101;82;25963;-79
2021/09/12 03:54:59;;;;;;;25.27;22.48;;;;;;;16.19;82.27;100633.39;1691846;83;25932;-79
2021/09/12 03:57:26;;;;;;;25.97;23.18;;;;;;;16.18;82.41;100639.86;1709499;83;26193;-78
2021/09/12 03:59:53;;;;;;;28.67;24.55;;;;;;;16.18;82.34;100631.75;1722262;83;27450;-78
2021/09/12 04:02:20;;;;;;;29.50;22.87;;;;;;;16.17;82.44;100632.27;1697546;83;25951;-78
2021/09/12 04:04:48;;;;;;;26.12;21.73;;;;;;;16.15;82.57;100628.97;1677065;83;26482;-79
2021/09/12 04:07:15;;;;;;;29.72;22.70;;;;;;;16.15;82.57;100632.18;1720789;83;25851;-79
2021/09/12 04:09:42;;;;;;;30.72;22.98;;;;;;;16.13;82.64;100623.47;1709947;83;25800;-78
2021/09/12 04:12:10;;;;;;;27.30;22.50;;;;;;;16.13;82.94;100631.58;1696079;83;27350;-78
2021/09/12 04:14:37;;;;;;;26.12;22.65;;;;;;;16.10;83.09;100633.39;1673150;83;25838;-78
2021/09/12 04:17:04;;;;;;;26.33;23.10;;;;;;;16.08;83.20;100632.79;1696312;82;25743;-78
2021/09/12 04:19:31;;;;;;;30.70;25.88;;;;;;;16.05;83.27;100635.41;1717155;83;25999;-79
2021/09/12 04:21:58;;;;;;;30.00;24.37;;;;;;;16.05;83.76;100630.52;1709653;83;25901;-79
2021/09/12 04:24:25;;;;;;;28.45;23.38;;;;;;;16.06;83.96;100636.20;1650894;83;27505;-78
2021/09/12 04:26:53;;;;;;;28.52;23.90;;;;;;;16.08;83.83;100636.30;1672774;83;25784;-78
2021/09/12 04:29:21;;;;;;;30.88;23.55;;;;;;;16.09;83.61;100640.66;1716870;83;26400;-78
2021/09/12 04:31:48;;;;;;;27.87;23.15;;;;;;;16.08;83.61;100639.55;1698600;83;26457;-78
2021/09/12 04:34:16;;;;;;;29.37;23.02;;;;;;;16.09;83.69;100641.18;1673707;83;25395;-79
2021/09/12 04:36:43;;;;;;;29.77;24.23;;;;;;;16.10;83.81;100637.45;1697679;83;28300;-78
2021/09/12 04:39:10;;;;;;;30.00;25.85;;;;;;;16.11;83.92;100639.08;1720253;83;25935;-78
2021/09/12 04:41:38;;;;;;;31.70;25.77;;;;;;;16.11;84.21;100642.62;1709540;82;26051;-78
2021/09/12 04:44:05;;;;;;;33.02;25.82;;;;;;;16.10;84.38;100650.95;1666898;83;26655;-78
2021/09/12 04:46:32;;;;;;;30.57;25.75;;;;;;;16.09;84.57;100650.64;1675372;83;25733;-78
2021/09/12 04:48:59;;;;;;;33.18;25.75;;;;;;;16.11;84.73;100648.55;1722172;83;27472;-79
2021/09/12 04:51:27;;;;;;;32.00;26.97;;;;;;;16.13;84.90;100651.84;1691046;83;25783;-79
2021/09/12 04:53:55;;;;;;;30.77;26.80;;;;;;;16.14;85.06;100652.97;1693965;82;25829;-79
2021/09/12 04:56:23;;;;;;;34.20;25.65;;;;;;;16.14;85.00;100650.27;1702927;82;26557;-78
2021/09/12 04:58:51;;;;;;;32.20;25.52;;;;;;;16.17;85.05;100643.08;1704731;82;25809;-78
2021/09/12 05:01:18;;;;;;;35.92;27.20;;;;;;;16.18;85.39;100644.75;1704576;82;27937;-78
2021/09/12 05:03:45;;;;;;;32.98;26.95;;;;;;;16.19;85.49;100642.33;1657713;82;26686;-79
2021/09/12 05:06:12;;;;;;;32.73;25.85;;;;;;;16.23;85.65;100633.79;1703768;82;25801;-78
2021/09/12 05:08:40;;;;;;;33.38;27.52;;;;;;;16.26;85.89;100633.33;1700309;82;26461;-78
2021/09/12 05:11:07;;;;;;;32.45;26.15;;;;;;;16.29;86.07;100636.95;1711077;83;25853;-78
2021/09/12 05:13:36;;;;;;;32.00;25.85;;;;;;;16.33;86.27;100637.64;1686248;83;27587;-78
2021/09/12 05:16:04;;;;;;;34.67;25.92;;;;;;;16.35;86.33;100634.70;1690300;82;26725;-78
2021/09/12 05:18:31;;;;;;;35.60;27.42;;;;;;;16.39;86.45;100638.61;1732093;82;25822;-78
2021/09/12 05:20:59;;;;;;;35.68;28.25;;;;;;;16.43;86.68;100635.23;1703984;82;25846;-78
2021/09/12 05:23:26;;;;;;;34.10;27.58;;;;;;;16.47;86.99;100635.61;1680483;82;25775;-79
2021/09/12 05:25:53;;;;;;;33.30;27.17;;;;;;;16.50;87.05;100639.26;1680494;82;27499;-78
2021/09/12 05:28:20;;;;;;;34.98;28.15;;;;;;;16.54;87.30;100644.52;1731190;82;26530;-77
2021/09/12 05:30:48;;;;;;;34.10;28.05;;;;;;;16.58;87.48;100643.02;1700055;82;26652;-78
2021/09/12 05:33:15;;;;;;;31.87;26.52;;;;;;;16.62;87.64;100642.86;1653216;83;26587;-78
2021/09/12 05:35:43;;;;;;;29.75;25.85;;;;;;;16.66;87.87;100646.77;1699131;83;25659;-78
2021/09/12 05:38:10;;;;;;;34.00;28.65;;;;;;;16.68;87.98;100649.55;1731207;82;27548;-78
2021/09/12 05:40:37;;;;;;;34.65;27.27;;;;;;;16.72;88.14;100654.00;1703401;82;25933;-78
2021/09/12 05:43:04;;;;;;;36.03;29.30;;;;;;;16.76;88.33;100653.85;1657108;82;25361;-78
2021/09/12 05:45:31;;;;;;;31.55;27.98;;;;;;;16.82;88.29;100652.94;1680581;82;26511;-80
2021/09/12 05:47:58;;;;;;;35.08;27.87;;;;;;;16.88;88.40;100647.97;1703199;82;25913;-78
2021/09/12 05:50:25;;;;;;;36.33;29.52;;;;;;;16.94;88.55;100657.37;1700799;82;27468;-78
2021/09/12 05:52:52;;;;;;;37.38;29.32;;;;;;;17.00;88.87;100648.86;1657790;82;25382;-78
2021/09/12 05:55:19;;;;;;;36.63;29.67;;;;;;;17.04;88.73;100650.08;1698721;82;25980;-78
2021/09/12 05:57:46;;;;;;;39.40;29.67;;;;;;;17.11;88.91;100645.94;1741329;82;25862;-78
2021/09/12 06:00:14;;;;;;;39.33;29.52;;;;;;;17.16;89.01;100642.83;1707470;82;26672;-79
2021/09/12 06:02:41;;;;;;;40.20;29.80;;;;;;;17.21;89.12;100642.98;1680726;82;28165;-79
2021/09/12 06:05:09;;;;;;;37.83;29.20;;;;;;;17.31;89.38;100651.89;1703166;82;25845;-78
2021/09/12 06:07:36;;;;;;;36.60;29.65;;;;;;;17.38;89.39;100648.06;1729558;81;25774;-78
2021/09/12 06:10:04;;;;;;;41.48;30.75;;;;;;;17.45;89.40;100652.03;1681595;82;26575;-78
2021/09/12 06:12:31;;;;;;;38.25;29.82;;;;;;;17.53;89.59;100648.50;1691945;82;25841;-78
2021/09/12 06:14:58;;;;;;;39.13;30.85;;;;;;;17.64;89.50;100657.16;1703187;82;27605;-78
2021/09/12 06:17:25;;;;;;;35.95;29.77;;;;;;;17.69;89.54;100653.77;1731614;81;25917;-78
2021/09/12 06:19:52;;;;;;;38.40;30.25;;;;;;;17.75;89.46;100654.73;1700662;82;25738;-78
2021/09/12 06:22:19;;;;;;;40.75;32.48;;;;;;;17.80;89.33;100654.84;1687599;82;26518;-78
2021/09/12 06:24:46;;;;;;;39.67;31.93;;;;;;;17.90;89.52;100648.35;1697510;83;25949;-78
2021/09/12 06:27:13;;;;;;;38.67;29.90;;;;;;;17.98;89.46;100652.91;1731296;82;27621;-78
2021/09/12 06:29:40;;;;;;;41.77;31.42;;;;;;;18.08;90.01;100653.66;1711471;83;26015;-78
2021/09/12 06:32:07;;;;;;;42.60;32.30;;;;;;;18.14;89.91;100648.66;1658289;81;25785;-79
2021/09/12 06:34:34;;;;;;;39.90;30.88;;;;;;;18.22;89.90;100651.84;1697238;83;26402;-79
2021/09/12 06:37:02;;;;;;;40.58;30.23;;;;;;;18.33;89.72;100659.16;1706352;82;25649;-78
2021/09/12 06:39:28;;;;;;;41.40;31.35;;;;;;;18.46;90.16;100653.53;1706481;82;27481;-78
2021/09/12 06:41:55;;;;;;;39.20;31.57;;;;;;;18.60;89.78;100650.05;1684775;82;26766;-79
2021/09/12 06:44:23;;;;;;;37.25;31.42;;;;;;;18.72;89.98;100652.21;1680672;82;25837;-79
2021/09/12 06:46:50;;;;;;;38.23;30.30;;;;;;;18.88;89.97;100659.59;1731458;82;26110;-79
2021/09/12 06:49:17;;;;;;;35.95;29.07;;;;;;;19.01;89.89;100665.32;1657197;82;26195;-78
2021/09/12 06:51:44;;;;;;;33.25;28.47;;;;;;;19.13;89.65;100669.65;1651393;83;27484;-78
2021/09/12 06:54:13;;;;;;;36.30;30.17;;;;;;;19.24;89.13;100663.89;1698296;83;26224;-78
2021/09/12 06:56:40;;;;;;;35.98;29.45;;;;;;;19.32;89.33;100663.50;1741213;82;25822;-79
2021/09/12 06:59:07;;;;;;;32.08;28.12;;;;;;;19.40;89.30;100666.38;1747625;81;25878;-79
2021/09/12 07:01:34;;;;;;;37.30;30.12;;;;;;;19.48;88.83;100665.45;1687321;83;25780;-79
2021/09/12 07:04:01;;;;;;;42.17;33.13;;;;;;;19.57;88.77;100665.88;1682853;81;27487;-78
2021/09/12 07:06:28;;;;;;;34.67;28.62;;;;;;;19.61;88.08;100670.59;1709997;80;25858;-78
2021/09/12 07:08:55;;;;;;;35.38;29.60;;;;;;;19.66;88.26;100679.38;1731930;82;26574;-78
2021/09/12 07:11:22;;;;;;;38.85;30.68;;;;;;;19.68;88.17;100673.98;1732456;80;26584;-78
2021/09/12 07:13:49;;;;;;;37.73;32.10;;;;;;;19.72;88.09;100671.59;1682918;82;25732;-79
2021/09/12 07:16:17;;;;;;;33.73;29.05;;;;;;;19.77;88.04;100663.55;1660207;82;27484;-79
2021/09/12 07:18:44;;;;;;;34.33;27.98;;;;;;;19.86;87.78;100665.62;1724172;82;25985;-78
2021/09/12 07:21:11;;;;;;;32.80;28.38;;;;;;;19.97;87.71;100663.34;1657058;83;25921;-79
2021/09/12 07:23:38;;;;;;;34.05;29.18;;;;;;;20.06;87.43;100662.41;1692610;82;26008;-79
2021/09/12 07:26:05;;;;;;;42.27;32.17;;;;;;;20.12;87.33;100664.16;1745757;81;25339;-78
2021/09/12 07:28:32;;;;;;;37.33;29.20;;;;;;;20.22;87.21;100679.30;1731616;81;27566;-78
2021/09/12 07:30:59;;;;;;;58.75;39.78;;;;;;;20.30;87.01;100676.16;1706349;82;25909;-78
2021/09/12 07:33:26;;;;;;;34.70;30.57;;;;;;;20.35;86.66;100678.14;1665241;83;25379;-79
2021/09/12 07:35:53;;;;;;;38.40;32.33;;;;;;;20.36;86.59;100673.80;1711567;82;25980;-78
2021/09/12 07:38:20;;;;;;;44.48;34.55;;;;;;;20.39;86.09;100671.13;1732050;82;26017;-79
2021/09/12 07:40:47;;;;;;;35.78;29.77;;;;;;;20.41;86.12;100673.06;1707076;82;27465;-78
2021/09/12 07:43:15;;;;;;;38.20;30.70;;;;;;;20.44;86.04;100677.48;1660422;82;26070;-78
2021/09/12 07:45:42;;;;;;;36.33;30.75;;;;;;;20.45;86.10;100677.75;1660149;82;25858;-79
2021/09/12 07:48:09;;;;;;;33.33;29.27;;;;;;;20.49;86.10;100676.70;1731706;82;25819;-79
2021/09/12 07:50:38;;;;;;;36.88;31.00;;;;;;;20.54;85.86;100684.43;1732010;82;26049;-79
2021/09/12 07:53:05;;;;;;;63.00;43.20;;;;;;;20.57;85.55;100681.19;1658146;83;28413;-78
2021/09/12 07:55:32;;;;;;;37.88;33.63;;;;;;;20.61;85.47;100687.81;1711468;82;25973;-78
2021/09/12 07:57:59;;;;;;;34.03;30.40;;;;;;;20.61;85.58;100682.89;1736106;81;25799;-78
2021/09/12 08:00:26;;;;;;;37.67;29.05;;;;;;;20.64;85.33;100689.18;1731656;82;26500;-79
2021/09/12 08:02:53;;;;;;;37.95;31.10;;;;;;;20.65;85.37;100688.13;1682512;82;25351;-79
2021/09/12 08:05:20;;;;;;;39.88;31.65;;;;;;;20.69;85.71;100688.73;1682985;82;27493;-79
2021/09/12 08:07:47;;;;;;;34.67;30.35;;;;;;;20.72;85.16;100696.38;1706728;82;26153;-78
2021/09/12 08:10:14;;;;;;;33.00;29.12;;;;;;;20.73;85.40;100696.69;1732016;82;25848;-78
2021/09/12 08:12:41;;;;;;;39.90;31.48;;;;;;;20.78;85.31;100697.30;1690596;82;26430;-79
2021/09/12 08:15:10;;;;;;;38.17;31.17;;;;;;;20.78;85.01;100696.73;1657649;82;26576;-79
2021/09/12 08:17:37;;;;;;;35.98;29.60;;;;;;;20.80;84.78;100693.78;1728010;82;27607;-79
2021/09/12 08:20:05;;;;;;;38.83;31.30;;;;;;;20.82;84.83;100694.35;1704922;82;25812;-79
2021/09/12 08:22:32;;;;;;;39.00;31.45;;;;;;;20.87;84.82;100694.97;1688451;82;25797;-79
2021/09/12 08:24:59;;;;;;;35.45;30.55;;;;;;;20.89;85.03;100692.81;1673739;83;26571;-79
2021/09/12 08:27:26;;;;;;;32.90;29.00;;;;;;;20.92;84.57;100697.20;1705880;82;25875;-79
2021/09/12 08:29:53;;;;;;;34.05;30.35;;;;;;;20.89;84.26;100694.17;1728171;82;27471;-79
2021/09/12 08:32:20;;;;;;;33.75;29.25;;;;;;;20.88;84.70;100694.70;1684690;82;25931;-79
2021/09/12 08:34:47;;;;;;;33.95;29.37;;;;;;;20.89;84.77;100690.92;1680311;82;26496;-79
2021/09/12 08:37:14;;;;;;;36.70;30.68;;;;;;;20.93;84.83;100692.59;1725148;82;26380;-78
2021/09/12 08:39:43;;;;;;;39.40;31.75;;;;;;;20.98;84.66;100694.03;1728071;82;26409;-79
2021/09/12 08:42:17;;;;;;;33.65;28.95;;;;;;;21.00;84.29;100694.59;1704181;82;27359;-79
2021/09/12 08:44:50;;;;;;;31.45;27.30;;;;;;;21.04;84.31;100702.02;1680799;82;25902;-79
2021/09/12 08:47:18;;;;;;;30.15;26.75;;;;;;;21.10;84.55;100690.67;1728619;82;25810;-79
2021/09/12 08:49:46;;;;;;;32.08;26.52;;;;;;;21.14;84.45;100687.19;1732079;82;25785;-79
2021/09/12 08:52:14;;;;;;;33.58;28.05;;;;;;;21.20;84.12;100694.87;1680773;82;25427;-79
2021/09/12 08:54:42;;;;;;;29.32;26.17;;;;;;;21.23;83.56;100692.48;1724288;82;28044;-79
2021/09/12 08:57:09;;;;;;;29.98;25.75;;;;;;;21.26;83.54;100688.40;1727049;82;26064;-79
2021/09/12 08:59:37;;;;;;;32.85;26.65;;;;;;;21.32;83.22;100684.12;1731650;82;26580;-79
2021/09/12 09:02:06;;;;;;;32.75;27.58;;;;;;;21.34;83.08;100683.32;1656330;82;25920;-79
2021/09/12 09:04:35;;;;;;;29.55;25.00;;;;;;;21.37;83.14;100678.73;1663463;82;26154;-79
2021/09/12 09:07:08;;;;;;;30.55;24.63;;;;;;;21.47;83.43;100673.92;1731244;82;27579;-79
2021/09/12 09:09:46;;;;;;;29.37;23.77;;;;;;;21.56;83.33;100680.56;1731426;81;26588;-79
2021/09/12 09:12:32;;;;;;;29.07;23.22;;;;;;;21.62;82.64;100678.17;1700458;82;25887;-79
2021/09/12 09:15:12;;;;;;;27.50;23.45;;;;;;;21.67;83.05;100676.88;1680044;82;26648;-79
2021/09/12 09:17:46;;;;;;;26.27;23.10;;;;;;;21.74;82.96;100682.95;1732057;81;25733;-79
2021/09/12 09:20:20;;;;;;;24.35;20.97;;;;;;;21.80;82.53;100672.37;1732145;81;27518;-79
2021/09/12 09:22:50;;;;;;;25.23;21.42;;;;;;;21.85;82.04;100677.08;1730687;81;25788;-79
2021/09/12 09:25:20;;;;;;;25.40;22.13;;;;;;;21.85;81.85;100672.46;1651141;83;25847;-79
2021/09/12 09:28:06;;;;;;;;;;;;;;;21.88;81.75;100675.19;1735064;82;25756;-79
2021/09/12 09:30:50;;;;;;;26.62;20.85;;;;;;;21.89;81.41;100680.94;1701443;82;25848;-79
2021/09/12 09:33:23;;;;;;;23.60;20.60;;;;;;;21.85;81.68;100678.45;1731798;82;27481;-79
2021/09/12 09:35:59;;;;;;;22.13;19.27;;;;;;;21.92;82.26;100677.14;1679339;82;25905;-79
2021/09/12 09:38:30;;;;;;;22.05;18.92;;;;;;;22.00;81.78;100681.31;1731719;82;25889;-79
2021/09/12 09:41:08;;;;;;;22.60;20.17;;;;;;;22.07;81.44;100679.17;1701080;82;26024;-79
2021/09/12 09:43:50;;;;;;;23.25;20.72;;;;;;;22.10;81.09;100678.13;1701715;82;26669;-79
2021/09/12 09:46:42;;;;;;;22.98;19.50;;;;;;;22.11;80.81;100675.66;1681957;82;27381;-79
2021/09/12 09:49:28;;;;;;;22.98;19.32;;;;;;;22.17;81.38;100675.19;1728838;82;25792;-79
2021/09/12 09:52:00;;;;;;;25.43;19.52;;;;;;;22.22;80.88;100676.56;1679158;82;25899;-79
2021/09/12 09:54:32;;;;;;;20.52;18.37;;;;;;;22.24;80.72;100667.58;1673927;83;26540;-80
2021/09/12 09:57:00;;;;;;;22.07;19.70;;;;;;;22.34;80.68;100670.94;1694591;82;25353;-79
2021/09/12 09:59:30;;;;;;;20.32;18.17;;;;;;;22.35;80.37;100665.20;1731134;82;27563;-80
2021/09/12 10:01:58;;;;;;;21.93;17.73;;;;;;;22.38;80.20;100662.50;1705836;82;25825;-79
2021/09/12 10:04:28;;;;;;;20.57;17.42;;;;;;;22.40;79.56;100662.52;1675347;83;25965;-79
2021/09/12 10:06:57;;;;;;;;;;;;;;;22.44;80.10;100664.17;1718287;82;25823;-79
2021/09/12 10:09:24;;;;;;;15.83;14.15;;;;;;;22.51;79.48;100663.41;1734650;81;25821;-79
2021/09/12 10:12:00;;;;;;;17.20;15.38;;;;;;;22.54;79.04;100665.62;1684489;80;27568;-79
2021/09/12 10:14:38;;;;;;;14.68;13.18;;;;;;;22.59;79.11;100662.94;1744704;79;25887;-80
2021/09/12 10:17:11;;;;;;;16.52;14.80;;;;;;;22.64;78.23;100658.35;1761179;80;26117;-79
2021/09/12 10:19:39;;;;;;;15.75;13.88;;;;;;;22.61;77.78;100662.96;1760101;79;25775;-79
2021/09/12 10:22:18;;;;;;;16.62;12.80;;;;;;;22.63;77.49;100661.32;1712469;80;26563;-79
2021/09/12 10:25:06;;;;;;;15.00;12.98;;;;;;;22.65;77.75;100664.61;1748151;81;27924;-79
2021/09/12 10:27:58;;;;;;;14.33;12.82;;;;;;;22.71;77.95;100660.84;1703829;82;25907;-79
2021/09/12 10:30:38;;;;;;;14.73;13.13;;;;;;;22.74;77.66;100656.20;1732040;82;26346;-79
2021/09/12 10:33:16;;;;;;;15.60;13.40;;;;;;;22.76;77.40;100649.39;1684408;82;26529;-79
2021/09/12 10:35:54;;;;;;;19.00;13.55;;;;;;;22.88;78.18;100648.62;1683008;83;26008;-79
2021/09/12 10:38:43;;;;;;;14.38;12.88;;;;;;;23.05;77.99;100641.61;1661432;83;27523;-79
2021/09/12 10:41:13;;;;;;;13.98;12.30;;;;;;;23.21;77.94;100638.37;1731596;82;26088;-80
2021/09/12 10:43:43;;;;;;;15.10;11.70;;;;;;;23.41;76.78;100635.73;1700843;82;25357;-79
2021/09/12 10:46:15;;;;;;;12.50;11.25;;;;;;;23.52;75.44;100630.56;1690485;82;26921;-79
2021/09/12 10:48:47;;;;;;;15.75;11.85;;;;;;;23.63;76.02;100626.76;1698991;82;25897;-79
2021/09/12 10:51:21;;;;;;;14.47;12.70;;;;;;;23.80;75.82;100622.39;1728780;82;28117;-79
2021/09/12 10:54:02;;;;;;;12.28;11.10;;;;;;;23.89;74.87;100616.66;1706414;82;25341;-80
2021/09/12 10:56:31;;;;;;;12.75;11.50;;;;;;;23.94;73.79;100612.53;1703018;82;25840;-79
2021/09/12 10:59:03;;;;;;;12.60;11.43;;;;;;;23.98;72.95;100612.25;1672392;83;26664;-79
2021/09/12 11:01:43;;;;;;;13.50;12.20;;;;;;;24.01;72.83;100613.08;1720376;83;25856;-79
2021/09/12 11:04:12;;;;;;;13.75;12.30;;;;;;;24.09;72.65;100619.39;1728585;81;27977;-79
2021/09/12 11:06:44;;;;;;;13.53;11.70;;;;;;;24.13;72.00;100610.36;1689246;83;25925;-79
2021/09/12 11:09:22;;;;;;;11.83;10.25;;;;;;;24.18;72.84;100613.64;1697909;83;25839;-79
2021/09/12 11:11:55;;;;;;;9.25;8.43;;;;;;;24.25;71.94;100612.82;1717607;82;25840;-80
2021/09/12 11:14:22;;;;;;;8.78;7.95;;;;;;;24.29;71.54;100604.33;1696788;83;25962;-79
2021/09/12 11:16:50;;;;;;;6.22;5.70;;;;;;;24.31;70.19;100604.87;1658689;83;27484;-80